Time;durP1;ratioP1;P1;durP2;ratioP2;P2;SDS_P1;SDS_P2;PMS_P1;PMS_P2;Temp;Humidity;BMP_temperature;BMP_pressure;BME280_temperature;BME280_humidity;BME280_pressure;Samples;Min_cycle;Max_cycle;Signal;HPM_P1;HPM_P2
2020/12/08 00:01:26;;;;;;;4.45;2.42;;;8.60;96.70;;;;;;4997676;28;20124;-80
2020/12/08 00:03:54;;;;;;;3.63;2.35;;;8.70;96.70;;;;;;5013350;28;20108;-79
2020/12/08 00:06:21;;;;;;;3.63;2.25;;;8.70;96.70;;;;;;5005124;28;20042;-78
2020/12/08 00:08:48;;;;;;;3.72;2.08;;;8.70;96.70;;;;;;5032228;28;20041;-79
2020/12/08 00:11:16;;;;;;;4.63;2.47;;;8.70;96.70;;;;;;4983560;28;20596;-78
2020/12/08 00:13:45;;;;;;;3.30;2.00;;;8.70;96.70;;;;;;5000201;28;20046;-79
2020/12/08 00:16:14;;;;;;;2.47;2.17;;;8.70;96.70;;;;;;5002646;28;20056;-79
2020/12/08 00:18:41;;;;;;;4.63;2.45;;;8.70;96.70;;;;;;4986275;28;20504;-79
2020/12/08 00:21:09;;;;;;;4.22;2.42;;;8.70;96.70;;;;;;4999717;28;20046;-79
2020/12/08 00:23:37;;;;;;;3.38;2.53;;;8.70;96.70;;;;;;4999156;28;20077;-79
2020/12/08 00:26:04;;;;;;;3.40;2.47;;;8.70;96.70;;;;;;4986453;28;20042;-79
2020/12/08 00:28:32;;;;;;;3.20;2.33;;;8.70;96.70;;;;;;5002325;28;20092;-79
2020/12/08 00:30:59;;;;;;;4.18;2.20;;;8.80;96.70;;;;;;5001139;28;20038;-79
2020/12/08 00:33:27;;;;;;;3.53;2.58;;;8.70;96.70;;;;;;5001554;28;20038;-78
2020/12/08 00:35:54;;;;;;;5.18;2.58;;;8.80;96.70;;;;;;4986440;28;20042;-79
2020/12/08 00:38:22;;;;;;;4.28;2.58;;;8.80;96.70;;;;;;4984271;28;20500;-79
2020/12/08 00:40:49;;;;;;;3.38;2.55;;;8.80;96.70;;;;;;5003015;28;20385;-79
2020/12/08 00:43:17;;;;;;;3.65;2.60;;;8.80;96.70;;;;;;5002508;28;20042;-79
2020/12/08 00:45:46;;;;;;;5.82;3.10;;;8.80;96.70;;;;;;5002683;28;20379;-80
2020/12/08 00:48:14;;;;;;;4.32;3.22;;;8.80;96.70;;;;;;5003435;28;20073;-79
2020/12/08 00:50:41;;;;;;;3.88;2.60;;;8.80;96.70;;;;;;5001623;28;20270;-79
2020/12/08 00:53:11;;;;;;;4.10;2.78;;;8.80;96.70;;;;;;5001212;28;20050;-79
2020/12/08 00:55:39;;;;;;;4.40;3.13;;;8.80;96.70;;;;;;5004275;28;20037;-79
2020/12/08 00:58:06;;;;;;;3.70;3.40;;;8.80;96.70;;;;;;4990288;28;20617;-80
2020/12/08 01:00:34;;;;;;;4.88;3.55;;;8.90;96.70;;;;;;5001405;28;20487;-79
2020/12/08 01:03:01;;;;;;;7.35;3.90;;;9.00;96.70;;;;;;4999620;28;20053;-79
2020/12/08 01:05:31;;;;;;;4.20;3.25;;;8.90;96.70;;;;;;4998444;28;20447;-79
2020/12/08 01:08:02;;;;;;;3.88;3.28;;;8.90;96.70;;;;;;5002720;28;20453;-80
2020/12/08 01:10:31;;;;;;;5.35;3.38;;;8.90;96.70;;;;;;5002712;28;20070;-79
2020/12/08 01:13:00;;;;;;;3.95;3.20;;;8.90;96.70;;;;;;5002124;28;20094;-79
2020/12/08 01:15:28;;;;;;;3.38;3.00;;;8.90;96.70;;;;;;4999925;28;20136;-79
2020/12/08 01:17:55;;;;;;;4.75;3.15;;;8.90;96.70;;;;;;4999615;28;20041;-79
2020/12/08 01:20:25;;;;;;;5.95;2.80;;;8.90;96.70;;;;;;4998558;28;20459;-79
2020/12/08 01:22:54;;;;;;;3.97;3.22;;;8.90;96.70;;;;;;5001079;28;20509;-79
2020/12/08 01:25:24;;;;;;;5.15;3.60;;;8.90;96.70;;;;;;4998324;28;20092;-79
2020/12/08 01:27:51;;;;;;;4.00;2.92;;;8.90;96.70;;;;;;5000258;28;20061;-79
2020/12/08 01:30:19;;;;;;;3.88;2.90;;;9.00;96.70;;;;;;5000599;28;20048;-79
2020/12/08 01:32:48;;;;;;;5.07;3.42;;;9.00;96.70;;;;;;5013982;28;20253;-79
2020/12/08 01:35:20;;;;;;;4.32;2.92;;;9.00;96.70;;;;;;4997546;28;20033;-79
2020/12/08 01:37:54;;;;;;;4.57;4.05;;;9.00;96.70;;;;;;4998762;28;20139;-81
2020/12/08 01:40:22;;;;;;;5.43;3.90;;;9.00;96.70;;;;;;4997894;28;20117;-79
2020/12/08 01:42:49;;;;;;;4.05;3.20;;;9.00;96.70;;;;;;4996914;28;20037;-80
2020/12/08 01:45:17;;;;;;;4.53;3.95;;;9.00;96.70;;;;;;4984624;28;20104;-80
2020/12/08 01:47:47;;;;;;;5.18;3.47;;;9.00;96.70;;;;;;4999601;28;20139;-80
2020/12/08 01:50:15;;;;;;;3.95;3.10;;;9.00;96.70;;;;;;4997072;28;20088;-80
2020/12/08 01:52:42;;;;;;;5.20;3.67;;;9.00;96.70;;;;;;4976116;28;20125;-80
2020/12/08 01:55:15;;;;;;;4.20;2.92;;;9.00;96.70;;;;;;5001377;28;20110;-80
2020/12/08 01:57:49;;;;;;;4.47;3.20;;;9.00;96.70;;;;;;5013548;28;20053;-81
2020/12/08 02:00:20;;;;;;;5.38;3.97;;;9.00;96.70;;;;;;4982802;28;20381;-81
2020/12/08 02:02:48;;;;;;;5.85;3.45;;;9.00;96.70;;;;;;4999535;28;20113;-81
2020/12/08 02:05:26;;;;;;;6.03;3.38;;;9.00;96.70;;;;;;4980088;28;20050;-81
2020/12/08 02:07:54;;;;;;;4.05;3.35;;;9.00;96.70;;;;;;4984310;28;20050;-81
2020/12/08 02:10:21;;;;;;;3.95;2.90;;;8.90;96.70;;;;;;4998721;28;20088;-82
2020/12/08 02:12:50;;;;;;;4.50;4.03;;;9.00;96.70;;;;;;5000530;28;20316;-80
2020/12/08 02:15:21;;;;;;;4.28;3.33;;;9.00;96.70;;;;;;4998946;28;20042;-81
2020/12/08 02:17:49;;;;;;;6.07;4.28;;;9.00;96.70;;;;;;5000003;28;20727;-81
2020/12/08 02:20:18;;;;;;;4.93;3.40;;;9.00;96.70;;;;;;4998778;28;20061;-81
2020/12/08 02:22:45;;;;;;;4.32;3.85;;;9.00;96.70;;;;;;4984605;28;20056;-81
2020/12/08 02:25:13;;;;;;;4.00;3.60;;;9.00;96.70;;;;;;5001752;28;20038;-81
2020/12/08 02:27:41;;;;;;;4.55;3.50;;;9.00;96.70;;;;;;4997241;28;20516;-81
2020/12/08 02:30:11;;;;;;;3.92;3.30;;;8.90;96.70;;;;;;4999498;28;20348;-81
2020/12/08 02:32:38;;;;;;;5.28;3.70;;;8.90;96.70;;;;;;4979462;28;20964;-81
2020/12/08 02:35:08;;;;;;;3.47;3.17;;;9.00;96.70;;;;;;4999755;28;20033;-80
2020/12/08 02:37:37;;;;;;;4.47;3.30;;;9.00;96.70;;;;;;4998781;28;20621;-81
2020/12/08 02:40:06;;;;;;;3.95;3.08;;;8.90;96.70;;;;;;5000276;28;20511;-80
2020/12/08 02:42:36;;;;;;;3.20;2.90;;;8.90;96.70;;;;;;4996712;28;20089;-81
2020/12/08 02:45:05;;;;;;;4.30;3.05;;;9.00;96.70;;;;;;4995936;28;20034;-79
2020/12/08 02:47:34;;;;;;;6.45;3.50;;;9.00;96.70;;;;;;4996345;28;20137;-81
2020/12/08 02:50:02;;;;;;;3.03;2.65;;;9.00;96.70;;;;;;5000815;28;20061;-80
2020/12/08 02:52:33;;;;;;;4.55;2.60;;;9.00;96.70;;;;;;4998456;28;20085;-81
2020/12/08 02:55:02;;;;;;;4.32;2.60;;;9.00;96.70;;;;;;4997437;28;20050;-81
2020/12/08 02:57:35;;;;;;;4.60;2.35;;;9.00;96.70;;;;;;4981759;28;20180;-81
2020/12/08 03:00:04;;;;;;;3.00;2.20;;;9.00;96.70;;;;;;5001807;28;20045;-80
2020/12/08 03:02:33;;;;;;;3.70;2.67;;;9.00;96.70;;;;;;4994548;28;20128;-80
2020/12/08 03:05:00;;;;;;;4.10;2.45;;;9.00;96.70;;;;;;4981924;28;20050;-80
2020/12/08 03:07:29;;;;;;;3.20;2.00;;;9.00;96.70;;;;;;4993529;28;20068;-81
2020/12/08 03:09:58;;;;;;;3.88;2.40;;;9.00;96.70;;;;;;5001776;28;20037;-81
2020/12/08 03:12:26;;;;;;;3.65;1.95;;;9.00;96.70;;;;;;4996424;28;20041;-81
2020/12/08 03:14:55;;;;;;;3.22;2.28;;;9.00;96.70;;;;;;4983883;28;20057;-80
2020/12/08 03:17:35;;;;;;;2.38;1.55;;;9.00;96.70;;;;;;4999685;28;20057;-80
2020/12/08 03:20:04;;;;;;;2.95;1.90;;;9.10;96.70;;;;;;4998400;28;20389;-81
2020/12/08 03:22:35;;;;;;;2.38;1.90;;;9.10;96.70;;;;;;5000121;28;20041;-81
2020/12/08 03:25:06;;;;;;;2.67;2.10;;;9.10;96.70;;;;;;4995436;28;20498;-81
2020/12/08 03:27:36;;;;;;;3.08;1.88;;;9.10;96.70;;;;;;4979545;28;20045;-80
2020/12/08 03:30:06;;;;;;;3.40;1.83;;;9.10;96.70;;;;;;4999611;28;20069;-81
2020/12/08 03:32:35;;;;;;;5.68;2.30;;;9.10;96.70;;;;;;5001133;28;20068;-81
2020/12/08 03:35:04;;;;;;;3.83;2.40;;;9.20;96.70;;;;;;4995680;28;20046;-81
2020/12/08 03:37:32;;;;;;;4.28;2.33;;;9.20;96.70;;;;;;4993949;28;20050;-81
2020/12/08 03:40:06;;;;;;;2.22;1.83;;;9.20;96.70;;;;;;4979051;28;20448;-81
2020/12/08 03:42:35;;;;;;;4.57;2.05;;;9.20;96.70;;;;;;4982818;28;20593;-80
2020/12/08 03:45:04;;;;;;;2.40;1.80;;;9.20;96.70;;;;;;4979909;28;20137;-81
2020/12/08 03:47:43;;;;;;;2.95;1.98;;;9.20;96.70;;;;;;4998187;28;20161;-81
2020/12/08 03:50:13;;;;;;;3.33;2.40;;;9.20;96.70;;;;;;4995301;28;20045;-80
2020/12/08 03:52:44;;;;;;;4.03;1.80;;;9.20;96.70;;;;;;4999592;28;20096;-80
2020/12/08 03:55:14;;;;;;;3.42;2.17;;;9.20;96.70;;;;;;4995317;28;20065;-81
2020/12/08 03:57:42;;;;;;;2.42;1.83;;;9.20;96.70;;;;;;4999724;28;20038;-81
2020/12/08 04:00:14;;;;;;;2.60;1.65;;;9.20;96.70;;;;;;4999856;28;20038;-81
2020/12/08 04:02:47;;;;;;;2.85;1.52;;;9.20;96.70;;;;;;4988172;28;20200;-80
2020/12/08 04:05:19;;;;;;;3.55;1.52;;;9.20;96.70;;;;;;4983937;28;20052;-79
2020/12/08 04:07:47;;;;;;;4.28;1.40;;;9.20;96.70;;;;;;5004659;28;20034;-79
2020/12/08 04:10:15;;;;;;;2.00;1.38;;;9.20;96.70;;;;;;5001386;28;20057;-78
2020/12/08 04:12:46;;;;;;;2.05;1.08;;;9.20;96.70;;;;;;5001381;28;20042;-80
2020/12/08 04:15:13;;;;;;;2.78;1.30;;;9.20;96.70;;;;;;4994851;28;20096;-80
2020/12/08 04:17:40;;;;;;;1.80;1.08;;;9.20;96.70;;;;;;5004789;28;20521;-79
2020/12/08 04:20:08;;;;;;;1.48;0.90;;;9.30;96.70;;;;;;5000030;28;20050;-80
2020/12/08 04:22:35;;;;;;;1.05;0.80;;;9.20;96.70;;;;;;4998313;28;20038;-80
2020/12/08 04:25:02;;;;;;;3.13;1.20;;;9.20;96.70;;;;;;5000973;28;20124;-80
2020/12/08 04:27:30;;;;;;;1.45;0.90;;;9.30;96.70;;;;;;5001106;28;20038;-80
2020/12/08 04:30:04;;;;;;;3.20;1.05;;;9.30;96.70;;;;;;4999738;28;20531;-80
2020/12/08 04:32:37;;;;;;;1.67;1.08;;;9.30;96.70;;;;;;4982235;28;20045;-80
2020/12/08 04:35:05;;;;;;;4.00;1.02;;;9.30;96.70;;;;;;4986438;28;20046;-80
2020/12/08 04:37:32;;;;;;;1.20;0.85;;;9.30;96.70;;;;;;4999244;28;20709;-80
2020/12/08 04:39:59;;;;;;;1.88;0.95;;;9.30;96.70;;;;;;4986601;28;20140;-80
2020/12/08 04:42:27;;;;;;;1.75;0.80;;;9.30;96.70;;;;;;4986048;28;20480;-80
2020/12/08 04:44:56;;;;;;;1.05;0.70;;;9.30;96.70;;;;;;5002043;28;20042;-80
2020/12/08 04:47:24;;;;;;;2.47;1.02;;;9.30;96.70;;;;;;4996433;28;20038;-80
2020/12/08 04:49:54;;;;;;;0.95;0.70;;;9.30;96.70;;;;;;5001926;28;20126;-80
2020/12/08 04:52:21;;;;;;;1.25;0.70;;;9.30;96.70;;;;;;4999644;28;20042;-79
2020/12/08 04:54:48;;;;;;;1.85;1.17;;;9.30;96.70;;;;;;5000793;28;20131;-79
2020/12/08 04:57:15;;;;;;;2.67;0.90;;;9.30;96.70;;;;;;4999559;28;20039;-79
2020/12/08 04:59:43;;;;;;;1.55;0.70;;;9.30;96.70;;;;;;4996184;28;20045;-79
2020/12/08 05:02:10;;;;;;;1.73;0.80;;;9.30;96.70;;;;;;4995792;28;20097;-79
2020/12/08 05:04:38;;;;;;;2.40;0.65;;;9.30;96.70;;;;;;5000267;28;20496;-79
2020/12/08 05:07:06;;;;;;;1.67;0.70;;;9.30;96.70;;;;;;4998834;28;20042;-79
2020/12/08 05:09:44;;;;;;;2.03;0.88;;;9.30;96.70;;;;;;5001911;28;20050;-79
2020/12/08 05:12:11;;;;;;;1.67;0.82;;;9.30;96.70;;;;;;4999231;28;20131;-79
2020/12/08 05:14:42;;;;;;;2.03;0.70;;;9.30;96.70;;;;;;5000080;28;20038;-79
2020/12/08 05:17:09;;;;;;;1.38;0.70;;;9.30;96.70;;;;;;4995674;28;20045;-78
2020/12/08 05:19:37;;;;;;;1.27;0.95;;;9.40;96.70;;;;;;5000817;28;20045;-79
2020/12/08 05:22:09;;;;;;;1.30;0.55;;;9.40;96.70;;;;;;5013377;28;20420;-80
2020/12/08 05:24:36;;;;;;;0.75;0.50;;;9.40;96.70;;;;;;5000861;28;20129;-79
2020/12/08 05:27:04;;;;;;;1.00;0.50;;;9.40;96.70;;;;;;4999678;28;20035;-79
2020/12/08 05:29:34;;;;;;;0.98;0.60;;;9.40;96.70;;;;;;4996760;28;20038;-79
2020/12/08 05:32:22;;;;;;;1.08;0.52;;;9.40;96.70;;;;;;5000635;28;20042;-79
2020/12/08 05:34:54;;;;;;;1.90;0.52;;;9.40;96.70;;;;;;4999595;28;20041;-79
2020/12/08 05:37:22;;;;;;;3.03;0.73;;;9.40;96.70;;;;;;5012232;28;20049;-79
2020/12/08 05:39:51;;;;;;;2.90;0.60;;;9.40;96.70;;;;;;4985649;28;20455;-79
2020/12/08 05:42:20;;;;;;;1.02;0.47;;;9.40;96.70;;;;;;5001835;28;20049;-79
2020/12/08 05:44:48;;;;;;;0.70;0.40;;;9.50;96.70;;;;;;4997644;28;20122;-79
2020/12/08 05:47:19;;;;;;;0.65;0.55;;;9.50;96.70;;;;;;5000356;28;20431;-79
2020/12/08 05:49:59;;;;;;;0.60;0.40;;;9.50;96.70;;;;;;5000143;28;20500;-79
2020/12/08 05:52:31;;;;;;;0.90;0.60;;;9.50;96.70;;;;;;4984343;28;20045;-79
2020/12/08 05:55:07;;;;;;;1.35;0.50;;;9.50;96.70;;;;;;4995513;28;20049;-79
2020/12/08 05:57:34;;;;;;;0.93;0.52;;;9.50;96.70;;;;;;4997375;28;20057;-79
2020/12/08 06:00:02;;;;;;;1.48;0.50;;;9.50;96.70;;;;;;5012420;28;20042;-79
2020/12/08 06:02:38;;;;;;;1.73;0.52;;;9.50;96.70;;;;;;4997041;28;20101;-79
2020/12/08 06:05:05;;;;;;;1.60;0.47;;;9.50;96.70;;;;;;4995172;28;20836;-79
2020/12/08 06:07:33;;;;;;;0.68;0.55;;;9.50;96.70;;;;;;5000108;28;20038;-80
2020/12/08 06:10:05;;;;;;;1.63;0.43;;;9.50;96.70;;;;;;4984436;28;20044;-80
2020/12/08 06:12:32;;;;;;;1.45;0.70;;;9.50;96.70;;;;;;5000547;28;20041;-79
2020/12/08 06:14:59;;;;;;;0.68;0.32;;;9.50;96.70;;;;;;4999335;28;20100;-79
2020/12/08 06:17:27;;;;;;;1.52;0.63;;;9.50;96.70;;;;;;5000233;28;20460;-79
2020/12/08 06:19:54;;;;;;;1.02;0.47;;;9.50;96.70;;;;;;4999691;28;20128;-80
2020/12/08 06:22:22;;;;;;;1.10;0.30;;;9.50;96.70;;;;;;4983463;28;20042;-79
2020/12/08 06:24:51;;;;;;;2.17;1.40;;;9.50;96.70;;;;;;4979773;28;20041;-79
2020/12/08 06:27:20;;;;;;;5.32;2.42;;;9.50;96.70;;;;;;5000859;28;20040;-78
2020/12/08 06:29:55;;;;;;;6.75;2.97;;;9.50;96.70;;;;;;5012409;28;20038;-79
2020/12/08 06:32:25;;;;;;;5.03;2.42;;;9.50;96.70;;;;;;4996724;28;20566;-80
2020/12/08 06:35:06;;;;;;;3.92;1.40;;;9.50;96.70;;;;;;4997190;28;20334;-79
2020/12/08 06:37:34;;;;;;;2.95;1.45;;;9.50;96.70;;;;;;4983747;28;20077;-79
2020/12/08 06:40:11;;;;;;;1.88;0.95;;;9.60;96.70;;;;;;5001610;28;20945;-79
2020/12/08 06:42:38;;;;;;;1.52;0.80;;;9.50;96.70;;;;;;4978328;28;20120;-80
2020/12/08 06:45:12;;;;;;;1.05;0.60;;;9.50;96.70;;;;;;5007998;28;20049;-79
2020/12/08 06:47:41;;;;;;;1.67;0.73;;;9.60;96.70;;;;;;4998416;28;20558;-79
2020/12/08 06:50:21;;;;;;;0.73;0.40;;;9.60;96.70;;;;;;5000176;28;20057;-80
2020/12/08 06:52:57;;;;;;;1.80;0.55;;;9.60;96.70;;;;;;4996395;28;20044;-79
2020/12/08 06:55:26;;;;;;;1.17;0.50;;;9.60;96.70;;;;;;4999713;28;20743;-79
2020/12/08 06:58:04;;;;;;;1.15;0.43;;;9.60;96.70;;;;;;4996310;28;20150;-79
2020/12/08 07:00:31;;;;;;;1.27;0.50;;;9.60;96.70;;;;;;4996812;28;20050;-79
2020/12/08 07:03:02;;;;;;;1.38;0.47;;;9.60;96.70;;;;;;4998275;28;20045;-79
2020/12/08 07:05:32;;;;;;;2.00;0.50;;;9.60;96.70;;;;;;5000120;28;22196;-79
2020/12/08 07:08:00;;;;;;;1.00;0.73;;;9.60;96.70;;;;;;4994034;28;20115;-80
2020/12/08 07:10:28;;;;;;;0.98;0.73;;;9.60;96.70;;;;;;4997500;28;20039;-80
2020/12/08 07:12:56;;;;;;;0.93;0.55;;;9.60;96.70;;;;;;4991746;28;20054;-80
2020/12/08 07:15:25;;;;;;;1.55;0.80;;;9.60;96.70;;;;;;5000225;28;20049;-79
2020/12/08 07:17:54;;;;;;;2.92;0.47;;;9.60;96.70;;;;;;4998158;28;20060;-80
2020/12/08 07:20:22;;;;;;;0.47;0.22;;;9.60;96.70;;;;;;5009716;28;20057;-79
2020/12/08 07:22:49;;;;;;;0.47;0.30;;;9.60;96.70;;;;;;5012638;28;20587;-79
2020/12/08 07:25:18;;;;;;;0.60;0.45;;;9.60;96.70;;;;;;4983770;28;20038;-79
2020/12/08 07:27:48;;;;;;;0.65;0.30;;;9.60;96.70;;;;;;5009318;28;20421;-79
2020/12/08 07:30:17;;;;;;;1.38;0.40;;;9.60;96.70;;;;;;4980158;28;20508;-79
2020/12/08 07:32:45;;;;;;;0.80;0.20;;;9.70;96.70;;;;;;4997982;28;20041;-80
2020/12/08 07:35:21;;;;;;;1.85;0.30;;;9.70;96.70;;;;;;4981366;28;20058;-79
2020/12/08 07:37:51;;;;;;;0.60;0.40;;;9.70;96.70;;;;;;4990150;28;20467;-79
2020/12/08 07:40:18;;;;;;;0.70;0.20;;;9.70;96.70;;;;;;4995642;28;20052;-79
2020/12/08 07:42:48;;;;;;;1.00;0.50;;;9.70;96.70;;;;;;4980565;28;20038;-79
2020/12/08 07:45:15;;;;;;;2.25;0.30;;;9.70;96.70;;;;;;4996554;28;20090;-79
2020/12/08 07:47:45;;;;;;;1.48;0.40;;;9.70;96.70;;;;;;4999066;28;20038;-79
2020/12/08 07:50:21;;;;;;;0.80;0.30;;;9.70;96.70;;;;;;4979735;28;20494;-79
2020/12/08 07:52:59;;;;;;;0.57;0.30;;;9.70;96.70;;;;;;4998430;28;20545;-80
2020/12/08 07:55:26;;;;;;;0.30;0.20;;;9.70;96.70;;;;;;4996179;28;20031;-79
2020/12/08 07:57:55;;;;;;;0.20;0.20;;;9.80;96.70;;;;;;4999248;28;20053;-79
2020/12/08 08:00:23;;;;;;;1.83;0.30;;;9.80;96.70;;;;;;4992951;28;20034;-79
2020/12/08 08:02:50;;;;;;;0.52;0.20;;;9.80;96.70;;;;;;4996570;28;20109;-79
2020/12/08 08:05:17;;;;;;;0.50;0.20;;;9.80;96.70;;;;;;4995290;28;20042;-79
2020/12/08 08:07:44;;;;;;;0.60;0.20;;;9.80;96.70;;;;;;4996588;28;20049;-79
2020/12/08 08:10:11;;;;;;;0.20;0.20;;;9.90;96.70;;;;;;5010533;28;20109;-79
2020/12/08 08:12:38;;;;;;;1.48;0.47;;;9.90;96.70;;;;;;4984217;28;20123;-79
2020/12/08 08:15:07;;;;;;;1.05;0.20;;;9.90;96.70;;;;;;4997858;28;20132;-79
2020/12/08 08:17:34;;;;;;;0.70;0.20;;;9.90;96.70;;;;;;4999057;28;20558;-80
2020/12/08 08:20:03;;;;;;;1.17;0.35;;;9.90;96.70;;;;;;4996107;28;20057;-79
2020/12/08 08:22:30;;;;;;;0.90;0.32;;;9.90;96.70;;;;;;4998709;28;20116;-81
2020/12/08 08:24:57;;;;;;;0.95;0.40;;;9.90;96.70;;;;;;4993352;28;20050;-79
2020/12/08 08:27:24;;;;;;;0.50;0.32;;;9.90;96.70;;;;;;4997219;28;20034;-79
2020/12/08 08:29:52;;;;;;;1.17;0.40;;;9.90;96.70;;;;;;4994251;28;20077;-80
2020/12/08 08:32:20;;;;;;;0.60;0.32;;;9.90;96.70;;;;;;4993053;28;20108;-79
2020/12/08 08:34:47;;;;;;;0.40;0.25;;;9.90;96.70;;;;;;4997471;28;20068;-79
2020/12/08 08:37:15;;;;;;;0.98;0.32;;;9.90;96.70;;;;;;5009609;28;20387;-79
2020/12/08 08:39:42;;;;;;;1.42;0.40;;;9.90;96.70;;;;;;5010607;28;20555;-79
2020/12/08 08:42:09;;;;;;;0.38;0.30;;;10.00;96.70;;;;;;4996220;28;20053;-79
2020/12/08 08:44:36;;;;;;;0.40;0.30;;;10.00;96.70;;;;;;4994390;28;20133;-79
2020/12/08 08:47:03;;;;;;;1.73;0.50;;;10.00;96.70;;;;;;4998323;28;20041;-79
2020/12/08 08:49:31;;;;;;;0.73;0.52;;;10.00;96.70;;;;;;5003409;28;20040;-79
2020/12/08 08:51:59;;;;;;;1.20;0.75;;;10.10;96.70;;;;;;4980930;28;20045;-79
2020/12/08 08:54:27;;;;;;;1.10;0.70;;;10.10;96.70;;;;;;5032337;28;20140;-88
2020/12/08 08:56:55;;;;;;;1.33;0.90;;;10.10;96.70;;;;;;4999303;28;20602;-81
2020/12/08 08:59:23;;;;;;;1.33;0.80;;;10.10;96.70;;;;;;4979940;28;20044;-78
2020/12/08 09:01:50;;;;;;;0.90;0.63;;;10.10;96.70;;;;;;4983080;28;20089;-78
2020/12/08 09:04:17;;;;;;;1.70;1.45;;;10.10;96.70;;;;;;4998719;28;20401;-77
2020/12/08 09:06:45;;;;;;;2.65;1.10;;;10.20;96.70;;;;;;4999097;28;20569;-78
2020/12/08 09:09:13;;;;;;;1.27;1.08;;;10.20;96.70;;;;;;5000965;28;20125;-78
2020/12/08 09:11:40;;;;;;;1.65;1.23;;;10.20;96.70;;;;;;4996597;28;20081;-79
2020/12/08 09:14:08;;;;;;;1.40;1.00;;;10.20;96.70;;;;;;5002226;28;20144;-81
2020/12/08 09:16:36;;;;;;;1.50;0.90;;;10.20;96.70;;;;;;4997715;28;20049;-82
2020/12/08 09:19:03;;;;;;;1.20;1.05;;;10.20;96.70;;;;;;5014061;28;20145;-79
2020/12/08 09:21:31;;;;;;;0.70;0.70;;;10.30;96.70;;;;;;4998878;28;20108;-78
2020/12/08 09:24:00;;;;;;;1.35;0.80;;;10.30;96.70;;;;;;5012378;28;20337;-78
2020/12/08 09:26:27;;;;;;;0.98;0.75;;;10.30;96.70;;;;;;5000226;28;20102;-81
2020/12/08 09:28:55;;;;;;;1.38;0.85;;;10.30;96.70;;;;;;4986433;28;20078;-80
2020/12/08 09:31:23;;;;;;;2.25;1.17;;;10.40;96.70;;;;;;4993667;28;20089;-78
2020/12/08 09:33:53;;;;;;;2.60;1.65;;;10.40;96.70;;;;;;5006107;28;20034;-78
2020/12/08 09:36:21;;;;;;;3.00;1.63;;;10.40;96.70;;;;;;4992707;28;20064;-77
2020/12/08 09:38:49;;;;;;;2.50;1.55;;;10.50;96.70;;;;;;4983328;28;20068;-81
2020/12/08 09:41:17;;;;;;;2.90;0.93;;;10.50;96.70;;;;;;4999688;28;20057;-79
2020/12/08 09:43:46;;;;;;;2.13;0.80;;;10.50;96.70;;;;;;5001040;28;20512;-82
2020/12/08 09:46:14;;;;;;;1.40;0.70;;;10.40;96.70;;;;;;4999148;28;20042;-81
2020/12/08 09:48:41;;;;;;;1.10;0.60;;;10.50;96.70;;;;;;5001586;28;20411;-81
2020/12/08 09:51:08;;;;;;;1.10;0.70;;;10.50;96.70;;;;;;4996500;28;20050;-79
2020/12/08 09:53:35;;;;;;;1.38;1.00;;;10.50;96.70;;;;;;4997723;28;20409;-79
2020/12/08 09:56:03;;;;;;;1.48;1.02;;;10.50;96.70;;;;;;4995887;28;20042;-79
2020/12/08 09:58:32;;;;;;;3.47;1.50;;;10.50;96.70;;;;;;4997852;28;20041;-80
2020/12/08 10:00:59;;;;;;;3.22;1.63;;;10.50;96.70;;;;;;4996580;28;20072;-78
2020/12/08 10:03:27;;;;;;;4.00;1.48;;;10.50;96.70;;;;;;4999974;28;20041;-77
2020/12/08 10:05:54;;;;;;;2.03;1.23;;;10.50;96.70;;;;;;4997135;28;20049;-79
2020/12/08 10:08:21;;;;;;;3.17;1.58;;;10.60;96.70;;;;;;4998235;28;20048;-78
2020/12/08 10:10:48;;;;;;;2.25;1.20;;;10.60;96.70;;;;;;4997356;28;20042;-78
2020/12/08 10:13:15;;;;;;;1.38;1.08;;;10.60;96.70;;;;;;5000362;28;20041;-81
2020/12/08 10:15:43;;;;;;;1.50;1.10;;;10.60;96.70;;;;;;5000778;28;20037;-82
2020/12/08 10:18:10;;;;;;;2.53;1.73;;;10.70;96.70;;;;;;4983776;28;20081;-82
2020/12/08 10:20:37;;;;;;;8.05;3.22;;;10.70;96.70;;;;;;5009303;28;20205;-82
2020/12/08 10:23:06;;;;;;;3.95;2.33;;;10.70;96.70;;;;;;4989212;28;20042;-80
2020/12/08 10:25:33;;;;;;;2.72;1.60;;;10.70;96.70;;;;;;4994497;28;20046;-78
2020/12/08 10:28:00;;;;;;;1.73;1.23;;;10.70;96.70;;;;;;4996429;28;20033;-79
2020/12/08 10:30:28;;;;;;;2.50;1.40;;;10.70;96.70;;;;;;5007756;28;20042;-76
2020/12/08 10:32:56;;;;;;;2.60;1.45;;;10.80;96.70;;;;;;4996404;28;20044;-81
2020/12/08 10:35:24;;;;;;;1.42;1.25;;;10.80;96.70;;;;;;4999910;28;20129;-78
2020/12/08 10:37:52;;;;;;;1.90;1.40;;;10.80;96.70;;;;;;4978619;28;20045;-78
2020/12/08 10:40:19;;;;;;;2.10;1.90;;;10.80;96.70;;;;;;4993215;28;20049;-77
2020/12/08 10:42:46;;;;;;;2.08;1.38;;;10.80;96.70;;;;;;4997645;28;20094;-78
2020/12/08 10:45:14;;;;;;;2.40;2.00;;;10.90;96.70;;;;;;4979141;28;20545;-78
2020/12/08 10:47:41;;;;;;;3.05;2.75;;;11.00;96.70;;;;;;4979422;28;20034;-79
2020/12/08 10:50:09;;;;;;;4.00;2.92;;;11.00;96.70;;;;;;4997639;28;20044;-86
2020/12/08 10:52:45;;;;;;;4.82;4.18;;;11.10;96.70;;;;;;4997591;28;20436;-86
2020/12/08 10:55:12;;;;;;;5.38;3.28;;;11.20;96.70;;;;;;4984878;28;20038;-85
2020/12/08 10:57:39;;;;;;;3.33;2.10;;;11.20;96.70;;;;;;4995065;28;20042;-81
2020/12/08 11:00:06;;;;;;;2.00;1.70;;;11.30;96.70;;;;;;4995713;28;20084;-82
2020/12/08 11:02:33;;;;;;;5.82;3.97;;;11.40;96.70;;;;;;4981421;28;20048;-85
2020/12/08 11:05:05;;;;;;;3.38;1.75;;;11.50;96.70;;;;;;4999585;28;20049;-86
2020/12/08 11:07:33;;;;;;;4.45;3.08;;;11.60;96.70;;;;;;4994909;28;20044;-84
2020/12/08 11:10:00;;;;;;;2.78;2.05;;;11.60;96.70;;;;;;4978324;28;20070;-80
2020/12/08 11:12:32;;;;;;;2.45;1.70;;;11.70;96.70;;;;;;4997977;28;20045;-83
2020/12/08 11:15:00;;;;;;;1.90;1.00;;;11.90;96.70;;;;;;4995366;28;20603;-83
2020/12/08 11:17:27;;;;;;;1.75;1.50;;;12.00;96.70;;;;;;4999900;28;20053;-84
2020/12/08 11:19:54;;;;;;;1.77;1.08;;;12.00;96.70;;;;;;4982944;28;20075;-80
2020/12/08 11:22:21;;;;;;;5.63;1.70;;;12.10;96.70;;;;;;4995189;28;20562;-80
2020/12/08 11:24:49;;;;;;;2.17;1.52;;;12.00;96.70;;;;;;5000682;28;20155;-82
2020/12/08 11:27:18;;;;;;;2.88;1.90;;;12.00;96.70;;;;;;5001628;28;20519;-83
2020/12/08 11:29:46;;;;;;;3.40;2.53;;;11.90;96.70;;;;;;4997678;28;20117;-84
2020/12/08 11:32:15;;;;;;;3.17;1.88;;;11.80;96.70;;;;;;4995611;28;20038;-82
2020/12/08 11:34:43;;;;;;;7.25;3.63;;;11.80;96.70;;;;;;5014750;28;20046;-86
2020/12/08 11:37:11;;;;;;;3.13;2.08;;;11.80;96.70;;;;;;4997311;28;20042;-80
2020/12/08 11:39:39;;;;;;;3.83;2.45;;;11.80;96.70;;;;;;4982318;28;20049;-80
2020/12/08 11:42:08;;;;;;;4.22;2.92;;;11.90;96.70;;;;;;4996465;28;20184;-82
2020/12/08 11:44:35;;;;;;;3.47;2.00;;;11.90;96.70;;;;;;4999182;28;20531;-79
2020/12/08 11:47:02;;;;;;;2.63;2.08;;;11.90;96.70;;;;;;4995867;28;20113;-79
2020/12/08 11:49:32;;;;;;;3.97;2.70;;;11.90;96.70;;;;;;5000507;28;20078;-78
2020/12/08 11:51:59;;;;;;;6.95;3.30;;;12.00;96.70;;;;;;4995928;28;20038;-80
2020/12/08 11:54:27;;;;;;;4.35;2.83;;;11.90;96.70;;;;;;4994639;28;20133;-78
2020/12/08 11:56:54;;;;;;;3.80;2.78;;;11.90;96.70;;;;;;4995515;28;20646;-82
2020/12/08 11:59:23;;;;;;;5.55;4.22;;;11.90;96.70;;;;;;4981805;28;20166;-86
2020/12/08 12:01:50;;;;;;;4.82;2.80;;;11.90;96.70;;;;;;4981946;28;20374;-79
2020/12/08 12:04:17;;;;;;;3.83;2.35;;;11.90;96.70;;;;;;4995696;28;20606;-79
2020/12/08 12:06:45;;;;;;;4.75;3.50;;;11.90;96.70;;;;;;4996902;28;20034;-83
2020/12/08 12:09:12;;;;;;;3.85;3.10;;;11.90;96.70;;;;;;4999573;28;20108;-81
2020/12/08 12:11:39;;;;;;;4.90;2.85;;;11.90;96.70;;;;;;4983610;28;20038;-80
2020/12/08 12:14:06;;;;;;;3.83;2.70;;;12.00;96.70;;;;;;4999535;28;20034;-79
2020/12/08 12:16:34;;;;;;;3.63;2.83;;;12.00;96.70;;;;;;4983869;28;20827;-79
2020/12/08 12:19:02;;;;;;;4.70;3.63;;;12.00;96.70;;;;;;4997298;28;20571;-83
2020/12/08 12:21:29;;;;;;;4.35;3.15;;;12.10;96.70;;;;;;5001725;28;20034;-85
2020/12/08 12:23:58;;;;;;;3.72;2.80;;;12.10;96.70;;;;;;4999699;28;20038;-82
2020/12/08 12:26:41;;;;;;;6.28;3.78;;;12.10;96.70;;;;;;4998366;28;20037;-80
2020/12/08 12:29:08;;;;;;;7.60;4.93;;;12.10;96.70;;;;;;4995367;28;20038;-82
2020/12/08 12:31:36;;;;;;;5.63;3.33;;;12.20;96.70;;;;;;5001618;28;20052;-82
2020/12/08 12:34:04;;;;;;;5.50;3.72;;;12.30;96.70;;;;;;5001637;28;20038;-79
2020/12/08 12:36:32;;;;;;;5.32;3.50;;;12.40;96.70;;;;;;4984799;28;20048;-83
2020/12/08 12:38:59;;;;;;;7.22;4.18;;;12.50;96.70;;;;;;4998772;28;20049;-82
2020/12/08 12:41:27;;;;;;;7.32;5.00;;;12.60;96.70;;;;;;5003046;28;20030;-83
2020/12/08 12:43:54;;;;;;;8.98;4.93;;;12.70;96.70;;;;;;4998341;28;20038;-80
2020/12/08 12:46:22;;;;;;;6.95;3.70;;;12.70;96.70;;;;;;5002231;28;20046;-81
2020/12/08 12:48:50;;;;;;;4.93;3.00;;;12.60;96.70;;;;;;5000455;28;20050;-77
2020/12/08 12:51:22;;;;;;;6.15;4.22;;;12.60;96.70;;;;;;4999687;28;20534;-80
2020/12/08 12:53:50;;;;;;;5.65;4.07;;;12.80;96.70;;;;;;4997431;28;20227;-80
2020/12/08 12:56:19;;;;;;;7.72;4.60;;;13.10;96.70;;;;;;5001791;28;20555;-79
2020/12/08 12:58:46;;;;;;;5.38;3.85;;;13.10;96.70;;;;;;4996330;28;20046;-80
2020/12/08 13:01:13;;;;;;;6.78;3.75;;;13.20;96.70;;;;;;4997454;28;20041;-81